createdAt,value
2018-02-27T00:01:52.411Z,98850.91
2018-02-27T00:04:18.772Z,98848.08
2018-02-27T00:06:45.137Z,98844.64
2018-02-27T00:09:11.489Z,98847.75
2018-02-27T00:11:37.841Z,98858.75
2018-02-27T00:14:04.210Z,98857.60
2018-02-27T00:16:30.628Z,98858.94
2018-02-27T00:18:57.170Z,98858.06
2018-02-27T00:21:23.522Z,98857.36
2018-02-27T00:23:49.911Z,98866.32
2018-02-27T00:26:16.250Z,98865.66
2018-02-27T00:28:42.616Z,98871.55
2018-02-27T00:31:09.013Z,98862.23
2018-02-27T00:33:35.416Z,98862.83
2018-02-27T00:36:01.759Z,98857.07
2018-02-27T00:38:28.166Z,98860.88
2018-02-27T00:40:54.539Z,98847.19
2018-02-27T00:43:20.932Z,98848.78
2018-02-27T00:45:47.290Z,98853.34
2018-02-27T00:48:13.650Z,98855.52
2018-02-27T00:50:40.004Z,98847.25
2018-02-27T00:53:06.359Z,98851.98
2018-02-27T00:55:32.722Z,98849.19
2018-02-27T00:57:59.062Z,98841.06
2018-02-27T01:00:25.437Z,98840.13
2018-02-27T01:02:51.781Z,98835.19
2018-02-27T01:05:18.134Z,98840.42
2018-02-27T01:07:44.478Z,98843.89
2018-02-27T01:10:10.859Z,98851.91
2018-02-27T01:12:37.249Z,98858.33
2018-02-27T01:15:03.636Z,98854.60
2018-02-27T01:17:29.981Z,98845.97
2018-02-27T01:20:03.302Z,98838.23
2018-02-27T01:22:29.673Z,98836.55
2018-02-27T01:24:56.037Z,98831.42
2018-02-27T01:27:22.394Z,98825.95
2018-02-27T01:29:48.772Z,98810.44
2018-02-27T01:32:15.134Z,98815.98
2018-02-27T01:34:41.513Z,98813.23
2018-02-27T01:37:07.883Z,98817.53
2018-02-27T01:39:34.248Z,98822.66
2018-02-27T01:42:00.652Z,98824.16
2018-02-27T01:44:27.014Z,98824.19
2018-02-27T01:46:53.411Z,98830.82
2018-02-27T01:49:19.759Z,98826.34
2018-02-27T01:51:46.138Z,98822.70
2018-02-27T01:54:12.690Z,98818.11
2018-02-27T01:56:39.049Z,98816.82
2018-02-27T01:59:05.414Z,98819.00
2018-02-27T02:01:31.762Z,98821.87
2018-02-27T02:03:58.116Z,98821.69
2018-02-27T02:06:24.481Z,98826.70
2018-02-27T02:08:50.834Z,98826.39
2018-02-27T02:11:17.216Z,98825.53
2018-02-27T02:13:43.585Z,98820.53
2018-02-27T02:16:09.978Z,98816.62
2018-02-27T02:18:36.363Z,98814.91
2018-02-27T02:21:02.767Z,98819.86
2018-02-27T02:23:29.104Z,98807.75
2018-02-27T02:25:55.474Z,98808.52
2018-02-27T02:28:21.833Z,98814.42
2018-02-27T02:30:48.197Z,98819.14
2018-02-27T02:33:14.556Z,98825.05
2018-02-27T02:35:40.913Z,98823.69
2018-02-27T02:38:07.341Z,98822.05
2018-02-27T02:40:33.720Z,98812.37
2018-02-27T02:43:00.094Z,98819.94
2018-02-27T02:45:26.457Z,98818.97
2018-02-27T02:47:52.826Z,98824.48
2018-02-27T02:50:19.183Z,98818.36
2018-02-27T02:52:45.557Z,98816.17
2018-02-27T02:55:12.011Z,98810.95
2018-02-27T02:57:38.374Z,98804.92
2018-02-27T03:00:04.753Z,98794.76
2018-02-27T03:02:31.158Z,98787.63
2018-02-27T03:04:57.513Z,98780.40
2018-02-27T03:07:23.896Z,98777.45
2018-02-27T03:09:50.258Z,98773.45
2018-02-27T03:12:16.605Z,98767.44
2018-02-27T03:14:42.963Z,98768.48
2018-02-27T03:17:09.315Z,98785.88
2018-02-27T03:19:35.714Z,98797.27
2018-02-27T03:22:02.099Z,98812.16
2018-02-27T03:24:28.502Z,98808.12
2018-02-27T03:26:54.841Z,98809.16
2018-02-27T03:29:21.194Z,98809.08
2018-02-27T03:31:47.558Z,98821.58
2018-02-27T03:34:13.926Z,98823.27
2018-02-27T03:36:40.303Z,98817.89
2018-02-27T03:39:06.653Z,98815.36
2018-02-27T03:41:33.013Z,98810.29
2018-02-27T03:43:59.373Z,98812.40
2018-02-27T03:46:25.769Z,98811.17
2018-02-27T03:48:52.246Z,98813.63
2018-02-27T03:51:18.686Z,98798.05
2018-02-27T03:53:45.086Z,98801.64
2018-02-27T03:56:11.449Z,98827.02
2018-02-27T03:58:37.853Z,98856.75
2018-02-27T04:01:04.202Z,98849.84
2018-02-27T04:03:30.589Z,98846.62
2018-02-27T04:05:56.942Z,98862.77
2018-02-27T04:08:23.314Z,98858.72
2018-02-27T04:10:49.695Z,98850.94
2018-02-27T04:13:16.066Z,98848.28
2018-02-27T04:15:42.438Z,98842.06
2018-02-27T04:18:08.871Z,98838.62
2018-02-27T04:20:35.226Z,98847.61
2018-02-27T04:23:01.610Z,98856.14
2018-02-27T04:25:27.960Z,98862.95
2018-02-27T04:27:54.314Z,98846.87
2018-02-27T04:30:20.752Z,98832.58
2018-02-27T04:32:47.114Z,98835.37
2018-02-27T04:35:13.489Z,98839.52
2018-02-27T04:37:39.858Z,98851.48
2018-02-27T04:40:06.213Z,98865.09
2018-02-27T04:42:32.605Z,98852.38
2018-02-27T04:44:58.978Z,98836.41
2018-02-27T04:47:25.326Z,98827.87
2018-02-27T04:49:51.681Z,98814.81
2018-02-27T04:52:18.059Z,98821.31
2018-02-27T04:54:44.405Z,98833.74
2018-02-27T04:57:10.826Z,98852.30
2018-02-27T04:59:37.233Z,98858.75
2018-02-27T05:02:03.596Z,98857.93
2018-02-27T05:04:29.950Z,98866.42
2018-02-27T05:06:56.330Z,98869.47
2018-02-27T05:09:22.680Z,98863.70
2018-02-27T05:11:49.029Z,98860.27
2018-02-27T05:14:15.400Z,98845.65
2018-02-27T05:16:41.774Z,98825.80
2018-02-27T05:19:08.130Z,98826.98
2018-02-27T05:21:34.494Z,98842.48
2018-02-27T05:24:00.860Z,98860.47
2018-02-27T05:26:27.235Z,98865.34
2018-02-27T05:28:53.593Z,98857.40
2018-02-27T05:31:19.954Z,98855.28
2018-02-27T05:33:46.310Z,98864.31
2018-02-27T05:36:12.682Z,98858.49
2018-02-27T05:38:39.067Z,98838.30
2018-02-27T05:41:05.452Z,98831.56
2018-02-27T05:43:31.832Z,98841.67
2018-02-27T05:45:58.178Z,98829.52
2018-02-27T05:48:24.702Z,98846.83
2018-02-27T05:50:51.177Z,98857.07
2018-02-27T05:53:17.554Z,98863.88
2018-02-27T05:55:43.910Z,98875.54
2018-02-27T05:58:10.317Z,98879.71
2018-02-27T06:00:36.660Z,98887.50
2018-02-27T06:03:03.034Z,98886.48
2018-02-27T06:05:29.392Z,98891.18
2018-02-27T06:07:55.782Z,98883.31
2018-02-27T06:10:22.302Z,98891.15
2018-02-27T06:12:48.692Z,98892.38
2018-02-27T06:15:15.206Z,98897.89
2018-02-27T06:17:42.271Z,98891.35
2018-02-27T06:20:08.638Z,98898.45
2018-02-27T06:22:35.026Z,98892.80
2018-02-27T06:25:01.398Z,98892.38
2018-02-27T06:27:27.746Z,98880.63
2018-02-27T06:29:54.109Z,98888.14
2018-02-27T06:32:20.485Z,98890.94
2018-02-27T06:34:46.957Z,98891.91
2018-02-27T06:37:13.332Z,98888.20
2018-02-27T06:39:39.707Z,98892.32
2018-02-27T06:42:06.241Z,98901.55
2018-02-27T06:44:32.790Z,98906.41
2018-02-27T06:46:59.153Z,98900.91
2018-02-27T06:49:25.519Z,98898.03
2018-02-27T06:51:51.926Z,98885.66
2018-02-27T06:54:18.299Z,98882.41
2018-02-27T06:56:44.665Z,98870.59
2018-02-27T06:59:11.066Z,98863.61
2018-02-27T07:01:37.409Z,98866.91
2018-02-27T07:04:03.774Z,98858.39
2018-02-27T07:06:30.181Z,98855.88
2018-02-27T07:08:56.552Z,98864.48
2018-02-27T07:11:22.919Z,98859.19
2018-02-27T07:13:49.292Z,98863.45
2018-02-27T07:16:15.690Z,98875.16
2018-02-27T07:18:42.057Z,98868.38
2018-02-27T07:21:08.417Z,98882.72
2018-02-27T07:23:34.793Z,98875.28
2018-02-27T07:26:01.182Z,98869.75
2018-02-27T07:28:27.538Z,98882.96
2018-02-27T07:30:53.901Z,98887.70
2018-02-27T07:33:20.250Z,98902.44
2018-02-27T07:35:46.603Z,98876.55
2018-02-27T07:38:12.970Z,98853.63
2018-02-27T07:40:39.317Z,98848.48
2018-02-27T07:43:05.677Z,98881.52
2018-02-27T07:45:32.045Z,98888.87
2018-02-27T07:47:58.407Z,98885.11
2018-02-27T07:50:24.765Z,98884.64
2018-02-27T07:52:51.122Z,98889.28
2018-02-27T07:55:17.485Z,98896.51
2018-02-27T07:57:43.847Z,98895.77
2018-02-27T08:00:10.201Z,98903.08
2018-02-27T08:02:36.589Z,98904.57
2018-02-27T08:05:02.977Z,98912.26
2018-02-27T08:07:29.389Z,98912.06
2018-02-27T08:09:55.758Z,98895.61
2018-02-27T08:12:22.120Z,98895.86
2018-02-27T08:14:48.522Z,98896.89
2018-02-27T08:17:14.879Z,98899.24
2018-02-27T08:19:41.227Z,98899.89
2018-02-27T08:22:07.698Z,98908.86
2018-02-27T08:24:34.068Z,98915.50
2018-02-27T08:27:00.431Z,98921.56
2018-02-27T08:29:26.777Z,98925.75
2018-02-27T08:31:53.132Z,98931.27
2018-02-27T08:34:19.609Z,98929.90
2018-02-27T08:36:46.109Z,98928.73
2018-02-27T08:39:12.461Z,98938.09
2018-02-27T08:41:38.821Z,98939.95
2018-02-27T08:44:05.173Z,98936.34
2018-02-27T08:46:31.529Z,98933.50
2018-02-27T08:48:57.934Z,98937.40
2018-02-27T08:51:25.109Z,98944.14
2018-02-27T08:53:51.565Z,98948.08
2018-02-27T08:56:17.914Z,98953.17
2018-02-27T08:58:44.385Z,98952.59
2018-02-27T09:01:10.916Z,98952.23
2018-02-27T09:03:37.394Z,98959.55
2018-02-27T09:06:03.832Z,98965.92
2018-02-27T09:08:30.194Z,98963.72
2018-02-27T09:10:56.637Z,98965.30
2018-02-27T09:13:22.995Z,98971.53
2018-02-27T09:15:50.293Z,98965.27
2018-02-27T09:18:16.907Z,98974.27
2018-02-27T09:20:45.035Z,98980.42
2018-02-27T09:23:19.466Z,98975.05
2018-02-27T09:25:45.855Z,98970.89
2018-02-27T09:28:12.220Z,98972.66
2018-02-27T09:30:38.610Z,98984.54
2018-02-27T09:33:04.951Z,98978.86
2018-02-27T09:35:31.300Z,98978.53
2018-02-27T09:37:57.665Z,98973.95
2018-02-27T09:40:25.790Z,98973.75
2018-02-27T09:42:53.337Z,98976.75
2018-02-27T09:45:19.855Z,98984.80
2018-02-27T09:47:46.235Z,98987.16
2018-02-27T09:50:15.110Z,98976.73
2018-02-27T09:52:42.038Z,98972.34
2018-02-27T09:55:08.506Z,98977.73
2018-02-27T09:57:34.942Z,98987.22
2018-02-27T10:00:01.374Z,98993.63
2018-02-27T10:02:27.740Z,98988.81
2018-02-27T10:04:54.157Z,98997.44
2018-02-27T10:07:20.531Z,99005.80
2018-02-27T10:09:46.882Z,99007.95
2018-02-27T10:12:13.233Z,99015.94
2018-02-27T10:14:39.650Z,99020.61
2018-02-27T10:17:05.982Z,99012.13
2018-02-27T10:19:32.353Z,99013.52
2018-02-27T10:21:58.753Z,99008.44
2018-02-27T10:24:25.110Z,99009.35
2018-02-27T10:26:51.462Z,99005.66
2018-02-27T10:29:17.853Z,99013.19
2018-02-27T10:31:44.210Z,99011.01
2018-02-27T10:34:10.570Z,99008.00
2018-02-27T10:36:36.939Z,99017.33
2018-02-27T10:39:03.369Z,99012.22
2018-02-27T10:41:29.757Z,99010.17
2018-02-27T10:43:56.111Z,99012.95
2018-02-27T10:46:22.538Z,99012.02
2018-02-27T10:48:48.951Z,99012.50
2018-02-27T10:51:15.342Z,99017.34
2018-02-27T10:53:41.850Z,99011.49
2018-02-27T10:56:08.238Z,99015.52
2018-02-27T10:58:34.593Z,99024.64
2018-02-27T11:01:01.922Z,99014.27
2018-02-27T11:03:28.269Z,99012.77
2018-02-27T11:05:57.669Z,99018.81
2018-02-27T11:08:27.596Z,99021.87
2018-02-27T11:10:58.541Z,99014.28
2018-02-27T11:13:28.272Z,99024.00
2018-02-27T11:15:59.299Z,99024.27
2018-02-27T11:18:27.900Z,99016.19
2018-02-27T11:20:54.273Z,99023.87
2018-02-27T11:23:20.744Z,99027.45
2018-02-27T11:25:47.109Z,99030.84
2018-02-27T11:28:13.485Z,99046.67
2018-02-27T11:30:39.836Z,99049.88
2018-02-27T11:33:06.227Z,99043.01
2018-02-27T11:35:32.608Z,99037.52
2018-02-27T11:37:58.973Z,99026.72
2018-02-27T11:40:25.357Z,99027.69
2018-02-27T11:42:51.760Z,99030.12
2018-02-27T11:45:18.134Z,99032.87
2018-02-27T11:47:44.502Z,99037.09
2018-02-27T11:50:10.886Z,99039.20
2018-02-27T11:52:37.454Z,99034.89
2018-02-27T11:55:03.825Z,99030.08
2018-02-27T11:57:30.185Z,99045.06
2018-02-27T11:59:56.541Z,99038.98
2018-02-27T12:02:22.928Z,99048.45
2018-02-27T12:04:49.279Z,99043.36
2018-02-27T12:07:15.663Z,99037.47
2018-02-27T12:09:42.077Z,99043.56
2018-02-27T12:12:08.454Z,99049.31
2018-02-27T12:14:34.833Z,99053.86
2018-02-27T12:17:01.185Z,99056.45
2018-02-27T12:19:27.546Z,99054.97
2018-02-27T12:21:54.140Z,99053.58
2018-02-27T12:24:20.511Z,99050.26
2018-02-27T12:26:46.918Z,99047.20
2018-02-27T12:29:13.297Z,99040.02
2018-02-27T12:31:39.749Z,99040.39
2018-02-27T12:34:06.106Z,99042.60
2018-02-27T12:36:32.514Z,99046.42
2018-02-27T12:38:58.871Z,99036.21
2018-02-27T12:41:25.286Z,99038.10
2018-02-27T12:43:51.671Z,99024.62
2018-02-27T12:46:18.035Z,99021.50
2018-02-27T12:48:44.386Z,99015.36
2018-02-27T12:51:10.746Z,99030.37
2018-02-27T12:53:37.230Z,99037.02
2018-02-27T12:56:03.590Z,99047.56
2018-02-27T12:58:29.967Z,99054.27
2018-02-27T13:00:56.328Z,99051.06
2018-02-27T13:03:22.694Z,99054.52
2018-02-27T13:05:49.101Z,99061.97
2018-02-27T13:08:15.471Z,99057.66
2018-02-27T13:10:59.625Z,99060.94
2018-02-27T13:13:31.166Z,99058.08
2018-02-27T13:16:14.542Z,99058.27
2018-02-27T13:18:52.952Z,99077.72
2018-02-27T13:21:19.389Z,99091.75
2018-02-27T13:23:45.782Z,99094.20
2018-02-27T13:26:14.462Z,99101.70
2018-02-27T13:28:44.877Z,99101.59
2018-02-27T13:31:26.989Z,99103.77
2018-02-27T13:34:04.183Z,99107.74
2018-02-27T13:36:31.682Z,99102.27
2018-02-27T13:39:00.071Z,99102.59
2018-02-27T13:41:34.363Z,99097.26
2018-02-27T13:44:04.073Z,99099.16
2018-02-27T13:46:40.607Z,99107.50
2018-02-27T13:49:11.743Z,99096.19
2018-02-27T13:51:46.105Z,99100.33
2018-02-27T13:54:15.302Z,99107.67
2018-02-27T13:56:51.740Z,99122.69
2018-02-27T13:59:21.294Z,99123.74
2018-02-27T14:02:03.829Z,99122.26
2018-02-27T14:04:48.702Z,99123.60
2018-02-27T14:07:15.126Z,99119.00
2018-02-27T14:09:55.309Z,99123.66
2018-02-27T14:12:22.821Z,99122.41
2018-02-27T14:14:50.347Z,99132.73
2018-02-27T14:17:17.113Z,99120.69
2018-02-27T14:19:44.366Z,99122.53
2018-02-27T14:22:10.758Z,99112.70
2018-02-27T14:24:37.234Z,99113.17
2018-02-27T14:27:06.843Z,99110.18
2018-02-27T14:29:34.173Z,99118.86
2018-02-27T14:32:00.533Z,99122.31
2018-02-27T14:34:26.899Z,99113.20
2018-02-27T14:36:53.408Z,99110.46
2018-02-27T14:39:19.825Z,99108.64
2018-02-27T14:41:46.177Z,99112.33
2018-02-27T14:44:12.546Z,99119.52
2018-02-27T14:46:38.962Z,99117.57
2018-02-27T14:49:05.389Z,99123.87
2018-02-27T14:51:31.784Z,99129.02
2018-02-27T14:53:58.186Z,99129.39
2018-02-27T14:56:24.614Z,99129.43
2018-02-27T14:58:50.982Z,99132.19
2018-02-27T15:01:17.334Z,99146.33
2018-02-27T15:03:43.708Z,99152.31
2018-02-27T15:06:10.182Z,99153.66
2018-02-27T15:08:36.638Z,99163.96
2018-02-27T15:11:03.006Z,99180.11
2018-02-27T15:13:29.353Z,99181.74
2018-02-27T15:15:55.737Z,99169.50
2018-02-27T15:18:22.094Z,99160.53
2018-02-27T15:20:48.445Z,99160.22
2018-02-27T15:23:14.809Z,99160.16
2018-02-27T15:25:41.159Z,99152.14
2018-02-27T15:28:07.524Z,99140.95
2018-02-27T15:30:33.897Z,99138.14
2018-02-27T15:33:00.281Z,99143.83
2018-02-27T15:35:26.682Z,99150.08
2018-02-27T15:37:53.061Z,99155.91
2018-02-27T15:40:19.425Z,99148.92
2018-02-27T15:42:45.789Z,99150.17
2018-02-27T15:45:12.164Z,99153.71
2018-02-27T15:47:38.537Z,99139.39
2018-02-27T15:50:04.882Z,99154.74
2018-02-27T15:52:31.292Z,99164.31
2018-02-27T15:54:57.650Z,99169.28
2018-02-27T15:57:24.006Z,99173.52
2018-02-27T15:59:50.553Z,99179.41
2018-02-27T16:02:17.089Z,99183.16
2018-02-27T16:04:43.498Z,99178.00
2018-02-27T16:07:09.942Z,99171.53
2018-02-27T16:09:36.293Z,99167.10
2018-02-27T16:12:02.654Z,99171.84
2018-02-27T16:14:29.022Z,99177.64
2018-02-27T16:16:55.406Z,99190.62
2018-02-27T16:19:22.125Z,99187.47
2018-02-27T16:21:48.534Z,99186.14
2018-02-27T16:24:14.939Z,99179.70
2018-02-27T16:26:41.371Z,99180.72
2018-02-27T16:29:07.757Z,99182.95
2018-02-27T16:31:34.199Z,99192.36
2018-02-27T16:34:00.559Z,99195.30
2018-02-27T16:36:26.921Z,99208.09
2018-02-27T16:38:53.353Z,99219.34
2018-02-27T16:41:19.744Z,99215.19
2018-02-27T16:43:46.137Z,99204.09
2018-02-27T16:46:12.510Z,99194.58
2018-02-27T16:48:38.897Z,99204.88
2018-02-27T16:51:05.271Z,99195.47
2018-02-27T16:53:31.678Z,99176.86
2018-02-27T16:55:58.090Z,99173.45
2018-02-27T16:58:24.499Z,99185.05
2018-02-27T17:00:50.902Z,99199.08
2018-02-27T17:03:17.264Z,99198.92
2018-02-27T17:05:43.647Z,99215.17
2018-02-27T17:08:10.039Z,99238.37
2018-02-27T17:10:36.426Z,99233.02
2018-02-27T17:13:02.821Z,99213.38
2018-02-27T17:15:29.353Z,99176.70
2018-02-27T17:17:55.710Z,99173.69
2018-02-27T17:20:22.160Z,99191.12
2018-02-27T17:22:48.530Z,99174.20
2018-02-27T17:25:14.984Z,99184.11
2018-02-27T17:27:41.358Z,99202.78
2018-02-27T17:30:07.765Z,99195.03
2018-02-27T17:32:34.164Z,99194.95
2018-02-27T17:35:07.962Z,99202.14
2018-02-27T17:37:37.844Z,99191.33
2018-02-27T17:40:07.814Z,99181.20
2018-02-27T17:42:35.370Z,99199.59
2018-02-27T17:45:02.539Z,99206.05
2018-02-27T17:47:28.899Z,99211.98
2018-02-27T17:49:55.278Z,99221.77
2018-02-27T17:52:21.730Z,99221.16
2018-02-27T17:54:48.076Z,99200.13
2018-02-27T17:57:14.521Z,99180.55
2018-02-27T17:59:40.922Z,99192.17
2018-02-27T18:02:07.275Z,99190.66
2018-02-27T18:04:33.650Z,99187.23
2018-02-27T18:07:00.042Z,99173.89
2018-02-27T18:09:26.418Z,99162.79
2018-02-27T18:11:52.775Z,99151.63
2018-02-27T18:14:19.139Z,99153.78
2018-02-27T18:16:45.541Z,99152.16
2018-02-27T18:19:11.945Z,99154.72
2018-02-27T18:21:38.335Z,99156.80
2018-02-27T18:24:04.695Z,99159.67
2018-02-27T18:26:31.057Z,99156.52
2018-02-27T18:28:57.447Z,99131.45
2018-02-27T18:31:23.862Z,99130.00
2018-02-27T18:33:50.312Z,99119.85
2018-02-27T18:36:16.721Z,99110.92
2018-02-27T18:38:43.115Z,99124.69
2018-02-27T18:41:09.489Z,99130.81
2018-02-27T18:43:35.843Z,99122.48
2018-02-27T18:46:05.255Z,99119.52
2018-02-27T18:48:35.702Z,99122.99
2018-02-27T18:51:17.277Z,99129.06
2018-02-27T18:54:00.746Z,99131.02
2018-02-27T18:56:34.519Z,99113.30
2018-02-27T18:59:23.253Z,99094.81
2018-02-27T19:02:15.038Z,99098.61
2018-02-27T19:04:41.470Z,99094.81
2018-02-27T19:07:09.614Z,99096.31
2018-02-27T19:09:40.258Z,99104.58
2018-02-27T19:12:09.890Z,99107.36
2018-02-27T19:14:37.351Z,99114.29
2018-02-27T19:17:08.437Z,99112.10
2018-02-27T19:19:36.826Z,99123.54
2018-02-27T19:22:05.349Z,99120.60
2018-02-27T19:24:33.597Z,99117.55
2018-02-27T19:27:01.811Z,99127.50
2018-02-27T19:29:29.102Z,99126.97
2018-02-27T19:31:55.581Z,99131.46
2018-02-27T19:34:25.766Z,99143.45
2018-02-27T19:36:52.183Z,99138.23
2018-02-27T19:39:18.632Z,99129.91
2018-02-27T19:41:45.863Z,99120.19
2018-02-27T19:44:14.142Z,99112.10
2018-02-27T19:46:40.507Z,99103.76
2018-02-27T19:49:06.863Z,99091.64
2018-02-27T19:51:33.401Z,99095.92
2018-02-27T19:53:59.869Z,99097.94
2018-02-27T19:56:26.245Z,99095.84
2018-02-27T19:58:52.618Z,99088.66
2018-02-27T20:01:18.983Z,99089.98
2018-02-27T20:03:45.350Z,99094.26
2018-02-27T20:06:11.780Z,99101.77
2018-02-27T20:08:38.184Z,99106.33
2018-02-27T20:11:04.622Z,99112.11
2018-02-27T20:13:31.015Z,99105.14
2018-02-27T20:15:57.373Z,99095.58
2018-02-27T20:18:24.723Z,99077.83
2018-02-27T20:20:51.163Z,99076.88
2018-02-27T20:36:34.237Z,99072.11
2018-02-27T20:39:06.715Z,99072.61
2018-02-27T20:41:33.083Z,99076.05
2018-02-27T20:43:59.530Z,99080.72
2018-02-27T20:46:25.892Z,99082.61
2018-02-27T20:48:52.278Z,99084.99
2018-02-27T20:51:18.808Z,99090.78
2018-02-27T20:53:45.215Z,99092.63
2018-02-27T20:56:11.604Z,99089.02
2018-02-27T20:58:37.976Z,99082.12
2018-02-27T21:01:04.433Z,99074.84
2018-02-27T21:03:30.888Z,99059.88
2018-02-27T21:05:57.235Z,99059.17
2018-02-27T21:08:23.649Z,99046.76
2018-02-27T21:10:50.017Z,99046.30
2018-02-27T21:13:18.407Z,99044.64
2018-02-27T21:15:44.826Z,99035.64
2018-02-27T21:18:11.212Z,99032.63
2018-02-27T21:20:37.570Z,99032.05
2018-02-27T21:23:03.984Z,99036.72
2018-02-27T21:25:30.469Z,99035.81
2018-02-27T21:27:57.168Z,99034.88
2018-02-27T21:30:23.591Z,99034.41
2018-02-27T21:32:49.945Z,99032.95
2018-02-27T21:35:16.340Z,99032.66
2018-02-27T21:37:42.772Z,99032.37
2018-02-27T21:40:09.377Z,99018.50
2018-02-27T21:42:35.753Z,99006.34
2018-02-27T21:45:15.363Z,99000.89
2018-02-27T21:47:41.841Z,99003.19
2018-02-27T21:50:08.358Z,99013.18
2018-02-27T21:52:34.774Z,99002.58
2018-02-27T21:55:01.141Z,99000.46
2018-02-27T21:57:27.502Z,99004.64
2018-02-27T21:59:53.940Z,99001.56
2018-02-27T22:02:20.337Z,98994.95
2018-02-27T22:04:46.705Z,99000.34
2018-02-27T22:07:13.086Z,98992.90
2018-02-27T22:09:39.444Z,98998.86
2018-02-27T22:12:05.802Z,99000.74
2018-02-27T22:14:32.173Z,99006.83
2018-02-27T22:16:58.547Z,99011.98
2018-02-27T22:19:24.917Z,99019.73
2018-02-27T22:21:51.318Z,99022.11
2018-02-27T22:24:17.658Z,99019.03
2018-02-27T22:26:44.135Z,99015.89
2018-02-27T22:29:10.522Z,99009.31
2018-02-27T22:31:36.967Z,99011.78
2018-02-27T22:34:03.394Z,98988.73
2018-02-27T22:36:29.801Z,98981.70
2018-02-27T22:38:56.172Z,98992.00
2018-02-27T22:41:22.670Z,98995.28
2018-02-27T22:43:49.016Z,98999.98
2018-02-27T22:46:15.412Z,99004.31
2018-02-27T22:48:41.798Z,99000.08
2018-02-27T22:51:08.159Z,98998.39
2018-02-27T22:53:34.521Z,98985.13
2018-02-27T22:56:00.882Z,98984.30
2018-02-27T22:58:27.240Z,98983.38
2018-02-27T23:00:53.617Z,98987.44
2018-02-27T23:03:19.994Z,98983.95
2018-02-27T23:05:46.376Z,98984.42
2018-02-27T23:08:12.720Z,98966.20
2018-02-27T23:10:39.120Z,98958.49
2018-02-27T23:13:05.464Z,98966.25
2018-02-27T23:15:31.824Z,98975.31
2018-02-27T23:20:32.887Z,98947.94
2018-02-27T23:23:00.654Z,98932.69
2018-02-27T23:38:50.178Z,98937.87
2018-02-27T23:41:18.316Z,98937.41
2018-02-27T23:43:46.968Z,98937.36
2018-02-27T23:46:17.238Z,98931.20
2018-02-27T23:48:45.212Z,98928.23
2018-02-27T23:51:13.209Z,98932.95
2018-02-27T23:53:40.969Z,98933.13
2018-02-27T23:56:08.012Z,98938.66
2018-02-27T23:58:34.844Z,98923.02
